Time;durP1;ratioP1;P1;durP2;ratioP2;P2;SDS_P1;SDS_P2;PMS_P1;PMS_P2;Temp;Humidity;BMP_temperature;BMP_pressure;BME280_temperature;BME280_humidity;BME280_pressure;Samples;Min_cycle;Max_cycle;Signal;HPM_P1;HPM_P2
2021/05/26 02:48:52;;;;;;;1.45;1.40;;;10.60;67.10;;;;;;4920763;28;87208;-85
2021/05/26 02:51:19;;;;;;;1.70;1.60;;;10.70;67.90;;;;;;4928548;28;87138;-86
2021/05/26 02:53:44;;;;;;;2.25;1.60;;;10.60;68.30;;;;;;4930655;28;86849;-85
2021/05/26 02:56:10;;;;;;;1.90;1.80;;;10.60;67.60;;;;;;4932833;28;86294;-84
2021/05/26 02:58:38;;;;;;;1.80;1.70;;;10.60;68.00;;;;;;4935721;28;87680;-85
2021/05/26 03:01:04;;;;;;;2.72;1.70;;;10.60;68.40;;;;;;4929087;28;87141;-86
2021/05/26 03:03:30;;;;;;;2.72;1.60;;;10.50;68.10;;;;;;4934185;28;87960;-86
2021/05/26 03:05:56;;;;;;;1.67;1.58;;;10.60;68.00;;;;;;4932591;28;87148;-84
2021/05/26 03:08:21;;;;;;;1.50;1.40;;;10.50;68.70;;;;;;4929406;28;87129;-85
2021/05/26 03:10:47;;;;;;;1.60;1.50;;;10.50;68.80;;;;;;4928290;28;86930;-86
2021/05/26 03:13:12;;;;;;;2.17;1.98;;;10.40;68.70;;;;;;4928944;28;86937;-86
2021/05/26 03:15:38;;;;;;;1.83;1.73;;;10.40;69.20;;;;;;4946848;28;87010;-86
2021/05/26 03:18:06;;;;;;;2.00;1.83;;;10.40;69.30;;;;;;4939435;28;87661;-85
2021/05/26 03:20:32;;;;;;;1.60;1.50;;;10.40;69.30;;;;;;4931109;28;86985;-84
2021/05/26 03:22:58;;;;;;;2.00;1.90;;;10.30;69.50;;;;;;4939350;28;86876;-87
2021/05/26 03:25:24;;;;;;;3.58;1.92;;;10.30;69.80;;;;;;4929567;28;86561;-86
2021/05/26 03:27:50;;;;;;;1.83;1.73;;;10.30;69.90;;;;;;4929404;28;87909;-86
2021/05/26 03:30:17;;;;;;;2.63;1.90;;;10.30;69.60;;;;;;4944418;28;89605;-86
2021/05/26 03:32:44;;;;;;;1.67;1.58;;;10.30;69.10;;;;;;4931059;28;86877;-85
2021/05/26 03:35:11;;;;;;;2.10;1.50;;;10.40;68.90;;;;;;4936678;28;86566;-85
2021/05/26 03:37:38;;;;;;;2.47;1.65;;;10.40;68.90;;;;;;4914853;28;86873;-82
2021/05/26 03:40:15;;;;;;;2.40;1.60;;;10.40;69.30;;;;;;4926349;28;90260;-84
2021/05/26 03:42:42;;;;;;;2.00;1.90;;;10.40;69.80;;;;;;4928458;28;86447;-85
2021/05/26 03:45:09;;;;;;;2.85;1.70;;;10.40;69.50;;;;;;4927982;28;86345;-84
2021/05/26 03:47:36;;;;;;;3.50;1.98;;;10.40;70.40;;;;;;4937722;28;87123;-84
2021/05/26 03:50:05;;;;;;;2.08;1.70;;;10.30;70.40;;;;;;4946970;28;88177;-86
2021/05/26 03:52:31;;;;;;;1.48;1.40;;;10.30;70.40;;;;;;4946740;28;87875;-86
2021/05/26 03:54:57;;;;;;;1.98;1.73;;;10.30;69.40;;;;;;4945026;28;86927;-84
2021/05/26 03:57:23;;;;;;;2.45;2.20;;;10.40;69.70;;;;;;4945964;28;88262;-84
2021/05/26 03:59:49;;;;;;;3.03;2.10;;;10.40;68.80;;;;;;4945999;28;87033;-82
2021/05/26 04:02:14;;;;;;;1.65;1.55;;;10.50;69.00;;;;;;4939881;28;86931;-86
2021/05/26 04:04:41;;;;;;;2.17;1.60;;;10.50;68.60;;;;;;4944487;28;87157;-83
2021/05/26 04:07:08;;;;;;;1.58;1.48;;;10.60;68.10;;;;;;4949247;28;87664;-83
2021/05/26 04:09:34;;;;;;;2.88;1.80;;;10.70;68.70;;;;;;4949643;28;87830;-82
2021/05/26 04:12:00;;;;;;;2.15;1.95;;;10.70;68.30;;;;;;4948733;28;87077;-84
2021/05/26 04:14:25;;;;;;;3.38;2.10;;;10.70;69.30;;;;;;4950939;28;86992;-84
2021/05/26 04:16:51;;;;;;;1.70;1.60;;;10.70;70.10;;;;;;4949587;28;87820;-84
2021/05/26 04:19:17;;;;;;;2.20;1.80;;;10.60;69.90;;;;;;4950022;28;87303;-83
2021/05/26 04:21:43;;;;;;;3.40;2.20;;;10.60;70.90;;;;;;4950273;28;87066;-84
2021/05/26 04:24:09;;;;;;;2.63;1.85;;;10.50;70.50;;;;;;4951113;28;86481;-83
2021/05/26 04:26:36;;;;;;;2.25;2.05;;;10.50;70.40;;;;;;4950427;28;87148;-84
2021/05/26 04:29:02;;;;;;;2.58;1.70;;;10.60;70.80;;;;;;4949835;28;87002;-83
2021/05/26 04:31:27;;;;;;;3.67;1.80;;;10.60;70.70;;;;;;4949562;28;86927;-84
2021/05/26 04:33:53;;;;;;;1.70;1.60;;;10.60;71.40;;;;;;4949053;28;85932;-82
2021/05/26 04:36:19;;;;;;;2.10;1.70;;;10.60;71.70;;;;;;4947495;28;87169;-84
2021/05/26 04:38:44;;;;;;;2.65;1.70;;;10.50;72.50;;;;;;4947066;28;86470;-86
2021/05/26 04:41:10;;;;;;;2.30;1.80;;;10.50;72.40;;;;;;4950779;28;87770;-82
2021/05/26 04:43:36;;;;;;;1.70;1.60;;;10.50;72.60;;;;;;4946352;28;87462;-83
2021/05/26 04:46:01;;;;;;;2.97;1.67;;;10.50;72.50;;;;;;4951575;28;88190;-82
2021/05/26 04:48:28;;;;;;;2.85;1.92;;;10.50;72.50;;;;;;4948792;28;87022;-83
2021/05/26 04:50:54;;;;;;;2.00;1.73;;;10.60;71.30;;;;;;4950140;28;86979;-82
2021/05/26 04:53:20;;;;;;;3.03;1.92;;;10.60;71.40;;;;;;4949141;28;86933;-83
2021/05/26 04:55:45;;;;;;;2.50;2.30;;;10.60;71.30;;;;;;4950868;28;90308;-83
2021/05/26 04:58:11;;;;;;;1.98;1.85;;;10.60;72.00;;;;;;4945067;28;86393;-83
2021/05/26 05:00:37;;;;;;;3.08;1.70;;;10.60;71.60;;;;;;4949268;28;86861;-84
2021/05/26 05:03:03;;;;;;;1.90;1.80;;;10.60;71.40;;;;;;4949884;28;86807;-82
2021/05/26 05:05:32;;;;;;;1.60;1.50;;;10.70;72.00;;;;;;4949427;28;88230;-82
2021/05/26 05:07:59;;;;;;;2.17;1.73;;;10.70;70.80;;;;;;4948994;28;88312;-84
2021/05/26 05:10:25;;;;;;;1.80;1.70;;;10.70;71.40;;;;;;4951252;28;86762;-83
2021/05/26 05:12:50;;;;;;;2.30;1.70;;;10.80;70.70;;;;;;4949629;28;86672;-85
2021/05/26 05:15:16;;;;;;;1.63;1.50;;;10.80;71.00;;;;;;4950147;28;86929;-87
2021/05/26 05:17:45;;;;;;;3.35;1.77;;;10.90;70.80;;;;;;4951559;28;87282;-85
2021/05/26 05:20:12;;;;;;;2.17;1.70;;;10.80;71.30;;;;;;4939907;28;87264;-82
2021/05/26 05:22:38;;;;;;;2.28;1.63;;;10.80;71.70;;;;;;4961743;28;85752;-84
2021/05/26 05:25:04;;;;;;;2.97;1.77;;;10.80;71.90;;;;;;4951709;28;86989;-85
2021/05/26 05:27:30;;;;;;;2.42;1.42;;;10.80;72.00;;;;;;4949721;28;87245;-83
2021/05/26 05:29:55;;;;;;;1.65;1.55;;;10.80;72.80;;;;;;4953036;28;87556;-84
2021/05/26 05:32:21;;;;;;;1.88;1.73;;;;;;;;;;4957346;28;87042;-85
2021/05/26 05:34:47;;;;;;;2.03;1.90;;;10.90;71.60;;;;;;4959504;28;87164;-84
2021/05/26 05:37:13;;;;;;;2.28;1.70;;;10.80;72.70;;;;;;4949937;28;87332;-84
2021/05/26 05:39:38;;;;;;;2.42;1.80;;;10.80;71.90;;;;;;4947892;28;86858;-86
2021/05/26 05:42:04;;;;;;;2.20;2.00;;;10.80;72.70;;;;;;4943961;28;86912;-85
2021/05/26 05:44:30;;;;;;;4.38;2.50;;;10.70;72.50;;;;;;4948620;28;87464;-83
2021/05/26 05:46:56;;;;;;;3.00;2.10;;;10.80;73.20;;;;;;4947213;28;86791;-84
2021/05/26 05:49:21;;;;;;;2.80;2.03;;;10.80;73.10;;;;;;4947694;28;87019;-84
2021/05/26 05:51:47;;;;;;;2.70;1.70;;;10.90;72.50;;;;;;4942698;28;87135;-84
2021/05/26 05:54:13;;;;;;;2.00;1.65;;;11.00;72.20;;;;;;4943090;28;87936;-84
2021/05/26 05:56:38;;;;;;;3.10;1.98;;;11.00;71.70;;;;;;4946981;28;87821;-84
2021/05/26 05:59:04;;;;;;;4.30;2.00;;;11.10;71.30;;;;;;4947205;28;86983;-84
2021/05/26 06:01:31;;;;;;;3.08;1.90;;;11.20;71.00;;;;;;4947517;28;88033;-83
2021/05/26 06:03:57;;;;;;;2.45;1.75;;;11.30;70.50;;;;;;4947247;28;87296;-83
2021/05/26 06:06:23;;;;;;;3.67;2.35;;;11.40;69.70;;;;;;4953420;28;86882;-84
2021/05/26 06:08:48;;;;;;;5.78;2.40;;;11.40;70.00;;;;;;4952791;28;86979;-84
2021/05/26 06:11:14;;;;;;;3.10;2.10;;;11.50;70.10;;;;;;4951349;28;86484;-84
2021/05/26 06:13:45;;;;;;;2.70;2.22;;;11.50;68.90;;;;;;4947243;28;87280;-85
2021/05/26 06:16:11;;;;;;;2.38;2.13;;;11.60;68.80;;;;;;4946337;28;86946;-86
2021/05/26 06:18:36;;;;;;;2.58;2.35;;;11.70;68.60;;;;;;4926711;28;87993;-84
2021/05/26 06:21:03;;;;;;;1.83;1.73;;;11.80;68.40;;;;;;4946962;28;87025;-84
2021/05/26 06:23:28;;;;;;;2.58;1.95;;;11.80;68.60;;;;;;4946772;28;88138;-88
2021/05/26 06:25:54;;;;;;;3.45;1.80;;;11.90;68.50;;;;;;4945673;28;87257;-84
2021/05/26 06:28:20;;;;;;;2.15;1.90;;;11.90;68.90;;;;;;4947120;28;86914;-83
2021/05/26 06:30:46;;;;;;;2.50;1.70;;;12.00;68.00;;;;;;4946693;28;86994;-85
2021/05/26 06:33:12;;;;;;;2.50;1.92;;;12.00;68.50;;;;;;4946614;28;87012;-83
2021/05/26 06:35:38;;;;;;;2.95;2.10;;;12.10;67.60;;;;;;4946893;28;86245;-84
2021/05/26 06:38:04;;;;;;;2.88;2.00;;;12.20;68.90;;;;;;4945538;28;86707;-83
2021/05/26 06:40:29;;;;;;;1.98;1.88;;;12.20;67.60;;;;;;4947066;28;86848;-85
2021/05/26 06:42:55;;;;;;;3.50;1.65;;;12.20;66.50;;;;;;4946427;28;87883;-85
2021/05/26 06:45:21;;;;;;;2.58;2.05;;;12.30;66.80;;;;;;4946645;28;87296;-84
2021/05/26 06:47:47;;;;;;;2.50;1.73;;;12.40;66.50;;;;;;4946679;28;87089;-84
2021/05/26 06:50:13;;;;;;;2.65;1.55;;;12.50;65.80;;;;;;4945898;28;87025;-84
2021/05/26 06:52:39;;;;;;;3.78;1.90;;;12.60;65.90;;;;;;4928524;28;88534;-85
2021/05/26 06:55:05;;;;;;;2.30;1.80;;;12.60;65.20;;;;;;4945849;28;87904;-83
2021/05/26 06:57:31;;;;;;;2.47;2.00;;;12.70;65.80;;;;;;4936033;28;86981;-84
2021/05/26 06:59:57;;;;;;;2.20;2.00;;;12.80;66.10;;;;;;4944097;28;86307;-84
2021/05/26 07:02:22;;;;;;;2.45;2.13;;;12.80;66.20;;;;;;4946563;28;87265;-83
2021/05/26 07:04:48;;;;;;;3.53;2.17;;;12.90;66.70;;;;;;4945822;28;87049;-84
2021/05/26 07:07:14;;;;;;;2.22;1.80;;;13.00;66.90;;;;;;4946816;28;87697;-83
2021/05/26 07:09:39;;;;;;;3.28;1.90;;;12.90;66.40;;;;;;4946577;28;87037;-85
2021/05/26 07:12:05;;;;;;;2.45;1.73;;;13.00;65.70;;;;;;4945660;28;86921;-86
2021/05/26 07:14:31;;;;;;;2.10;1.90;;;13.00;65.40;;;;;;4946923;28;86934;-85
2021/05/26 07:16:57;;;;;;;2.50;2.30;;;13.10;64.90;;;;;;4943439;28;87160;-84
2021/05/26 07:19:23;;;;;;;2.20;2.10;;;13.30;65.10;;;;;;4940566;28;86898;-86
2021/05/26 07:21:49;;;;;;;2.17;2.03;;;13.40;63.50;;;;;;4947111;28;86898;-87
2021/05/26 07:24:14;;;;;;;3.83;1.98;;;13.50;64.30;;;;;;4940480;28;86966;-84
2021/05/26 07:26:40;;;;;;;1.55;1.42;;;13.60;62.70;;;;;;4945384;28;86962;-85
2021/05/26 07:29:06;;;;;;;3.17;2.35;;;13.80;63.70;;;;;;4930103;28;87013;-84
2021/05/26 07:31:32;;;;;;;2.85;1.63;;;13.90;63.40;;;;;;4954713;28;88242;-85
2021/05/26 07:33:59;;;;;;;3.17;2.10;;;14.00;62.40;;;;;;4957910;28;89207;-84
2021/05/26 07:36:24;;;;;;;1.85;1.75;;;14.30;63.20;;;;;;4958482;28;86919;-85
2021/05/26 07:38:51;;;;;;;2.63;2.00;;;14.60;62.90;;;;;;4956504;28;86666;-86
2021/05/26 07:41:17;;;;;;;3.17;2.25;;;14.90;60.80;;;;;;4951163;28;87259;-86
2021/05/26 07:43:43;;;;;;;3.42;2.38;;;15.30;60.50;;;;;;4956678;28;87005;-85
2021/05/26 07:46:11;;;;;;;3.35;2.08;;;15.50;58.50;;;;;;4961747;28;86769;-85
2021/05/26 07:48:37;;;;;;;2.03;1.83;;;15.50;59.00;;;;;;4956567;28;86219;-85
2021/05/26 07:51:04;;;;;;;4.07;1.70;;;15.70;57.90;;;;;;4952359;28;87064;-86
2021/05/26 07:53:29;;;;;;;2.58;2.00;;;15.50;58.90;;;;;;4951225;28;87392;-86
2021/05/26 07:55:55;;;;;;;2.40;2.15;;;15.50;59.30;;;;;;4949731;28;87930;-87
2021/05/26 07:58:21;;;;;;;1.98;1.48;;;15.60;59.70;;;;;;4947884;28;86987;-86
2021/05/26 08:00:46;;;;;;;3.38;1.80;;;15.80;58.70;;;;;;4949516;28;86928;-86
2021/05/26 08:03:12;;;;;;;2.53;1.77;;;15.80;57.90;;;;;;4946231;28;87007;-85
2021/05/26 08:05:38;;;;;;;4.25;1.73;;;15.90;59.80;;;;;;4952205;28;86934;-84
2021/05/26 08:08:04;;;;;;;2.13;1.98;;;16.00;58.20;;;;;;4953451;28;87088;-87
2021/05/26 08:10:29;;;;;;;2.42;1.75;;;16.10;58.20;;;;;;4951542;28;87725;-85
2021/05/26 08:12:55;;;;;;;4.32;2.10;;;15.90;58.00;;;;;;4950402;28;86311;-85
2021/05/26 08:15:21;;;;;;;3.85;2.20;;;15.70;58.30;;;;;;4949914;28;86940;-85
2021/05/26 08:17:47;;;;;;;2.97;2.20;;;15.70;59.00;;;;;;4949835;28;86747;-84
2021/05/26 08:20:13;;;;;;;2.30;2.13;;;15.80;59.50;;;;;;4932438;28;90671;-86
2021/05/26 08:22:39;;;;;;;2.30;2.20;;;15.80;58.70;;;;;;4949797;28;87093;-86
2021/05/26 08:25:06;;;;;;;2.63;2.00;;;15.80;58.50;;;;;;4950158;28;87034;-85
2021/05/26 08:27:32;;;;;;;5.05;2.83;;;15.90;57.70;;;;;;4943865;28;86839;-86
2021/05/26 08:30:01;;;;;;;4.43;1.60;;;16.40;58.10;;;;;;4948629;28;87535;-84
2021/05/26 08:32:28;;;;;;;4.50;2.00;;;16.90;57.20;;;;;;4937699;28;86948;-86
2021/05/26 08:34:55;;;;;;;2.30;2.10;;;17.50;56.30;;;;;;4949692;28;87008;-86
2021/05/26 08:37:22;;;;;;;2.47;2.28;;;17.70;54.40;;;;;;4946346;28;86180;-85
2021/05/26 08:39:48;;;;;;;2.38;2.08;;;17.90;54.40;;;;;;4949999;28;87041;-85
2021/05/26 08:42:18;;;;;;;2.50;2.25;;;18.40;53.80;;;;;;4937810;28;87558;-86
2021/05/26 08:44:44;;;;;;;1.88;1.77;;;19.10;51.30;;;;;;4942737;28;87961;-83
2021/05/26 08:47:20;;;;;;;2.20;1.90;;;19.40;53.70;;;;;;4949345;28;87048;-86
2021/05/26 08:49:47;;;;;;;2.28;2.08;;;19.70;51.20;;;;;;4953367;28;86842;-85
2021/05/26 08:52:18;;;;;;;2.42;2.15;;;20.10;51.70;;;;;;4940977;28;88026;-83
2021/05/26 08:54:46;;;;;;;;;;;20.20;49.80;;;;;;4943706;28;87515;-84
2021/05/26 08:57:13;;;;;;;2.53;2.10;;;20.10;48.70;;;;;;4945405;28;86357;-84
2021/05/26 08:59:38;;;;;;;2.30;2.20;;;19.90;49.90;;;;;;4948585;28;89161;-85
2021/05/26 09:02:08;;;;;;;4.13;2.35;;;19.80;52.30;;;;;;4947932;28;87383;-83
2021/05/26 09:04:35;;;;;;;2.78;2.58;;;19.70;51.70;;;;;;4950621;28;86546;-85
2021/05/26 09:07:12;;;;;;;2.17;2.08;;;19.40;53.70;;;;;;4950109;28;87039;-83
2021/05/26 09:09:53;;;;;;;4.00;2.60;;;19.50;53.50;;;;;;4947123;28;88512;-84
2021/05/26 09:12:25;;;;;;;4.55;2.40;;;19.50;52.60;;;;;;4937644;28;88376;-84
2021/05/26 09:14:51;;;;;;;2.50;2.30;;;19.60;51.20;;;;;;4945440;28;87047;-86
2021/05/26 09:17:17;;;;;;;2.80;2.47;;;19.70;51.80;;;;;;4943043;28;87056;-85
2021/05/26 09:19:43;;;;;;;4.28;2.65;;;19.90;50.60;;;;;;4947567;28;86781;-85
2021/05/26 09:22:10;;;;;;;3.22;2.10;;;19.90;50.20;;;;;;4947695;28;87183;-84
2021/05/26 09:24:37;;;;;;;2.80;2.00;;;19.80;51.10;;;;;;4948450;28;86667;-86
2021/05/26 09:27:09;;;;;;;2.85;2.13;;;19.90;51.50;;;;;;4933836;28;86125;-86
2021/05/26 09:29:44;;;;;;;3.05;2.05;;;20.10;52.30;;;;;;4945843;28;87660;-86
2021/05/26 09:32:10;;;;;;;3.47;2.10;;;20.40;49.10;;;;;;4946651;28;87969;-84
2021/05/26 09:34:40;;;;;;;6.20;2.67;;;20.70;49.40;;;;;;4948050;28;87879;-85
2021/05/26 09:37:06;;;;;;;3.67;2.47;;;20.60;50.60;;;;;;4947358;28;87070;-84
2021/05/26 09:39:48;;;;;;;2.65;2.35;;;20.70;49.00;;;;;;4948588;28;87318;-83
2021/05/26 09:42:23;;;;;;;1.80;1.70;;;20.70;50.60;;;;;;4954773;28;87881;-82
2021/05/26 09:45:06;;;;;;;2.22;2.03;;;20.60;49.70;;;;;;4957309;28;86959;-84
2021/05/26 09:47:53;;;;;;;2.75;1.80;;;20.60;52.10;;;;;;4938505;28;86874;-84
2021/05/26 09:50:28;;;;;;;3.55;1.92;;;20.40;47.10;;;;;;4954693;28;88585;-84
2021/05/26 09:53:15;;;;;;;3.92;1.90;;;19.80;47.80;;;;;;4951023;28;87304;-84
2021/05/26 09:55:43;;;;;;;1.92;1.83;;;19.90;49.80;;;;;;4954698;28;86928;-83
2021/05/26 09:58:17;;;;;;;2.05;1.80;;;20.00;50.10;;;;;;4956864;28;87151;-84
2021/05/26 10:00:45;;;;;;;3.58;1.60;;;19.50;52.10;;;;;;4944807;28;89699;-83
2021/05/26 10:03:11;;;;;;;2.00;1.90;;;19.30;50.30;;;;;;4954983;28;87608;-84
2021/05/26 10:05:37;;;;;;;1.90;1.80;;;18.90;51.20;;;;;;4939534;28;86967;-82
2021/05/26 10:08:06;;;;;;;3.28;2.05;;;18.70;52.90;;;;;;4947570;28;87003;-84
2021/05/26 10:10:32;;;;;;;3.35;1.90;;;18.60;52.80;;;;;;4945431;28;86587;-84
2021/05/26 10:13:04;;;;;;;2.50;2.40;;;18.10;54.00;;;;;;4945608;28;87774;-84
2021/05/26 10:15:32;;;;;;;3.60;2.10;;;18.40;54.60;;;;;;4948750;28;86903;-84
2021/05/26 10:18:00;;;;;;;3.70;2.25;;;18.30;52.70;;;;;;4947654;28;86629;-84
2021/05/26 10:20:29;;;;;;;2.55;2.33;;;18.40;55.20;;;;;;4942065;28;87366;-85
2021/05/26 10:22:57;;;;;;;2.30;2.10;;;18.70;51.70;;;;;;4946487;28;89625;-84
2021/05/26 10:25:23;;;;;;;3.30;2.10;;;18.90;51.50;;;;;;4945183;28;88076;-84
2021/05/26 10:27:50;;;;;;;3.53;1.83;;;19.10;50.90;;;;;;4947100;28;86880;-86
2021/05/26 10:30:17;;;;;;;3.33;2.45;;;19.20;52.30;;;;;;4944840;28;86683;-84
2021/05/26 10:32:50;;;;;;;3.08;2.17;;;19.20;52.60;;;;;;4947013;28;86684;-85
2021/05/26 10:35:17;;;;;;;2.90;2.20;;;19.30;52.60;;;;;;4948663;28;86976;-86
2021/05/26 10:37:44;;;;;;;2.53;2.30;;;19.30;54.20;;;;;;4947634;28;86757;-86
2021/05/26 10:40:38;;;;;;;4.13;2.40;;;19.20;52.80;;;;;;4941444;28;86966;-85
2021/05/26 10:43:16;;;;;;;2.33;2.10;;;19.20;54.50;;;;;;4933552;28;87072;-85
2021/05/26 10:45:43;;;;;;;7.35;2.40;;;19.00;52.60;;;;;;4945300;28;87501;-84
2021/05/26 10:48:09;;;;;;;2.15;1.88;;;18.90;52.90;;;;;;4945336;28;87067;-82
2021/05/26 10:50:44;;;;;;;1.90;1.80;;;18.70;54.70;;;;;;4942986;28;88145;-84
2021/05/26 10:53:15;;;;;;;2.90;2.00;;;18.70;54.00;;;;;;4945892;28;87441;-85
2021/05/26 10:55:44;;;;;;;2.88;1.90;;;18.50;53.20;;;;;;4944538;28;86803;-82
2021/05/26 10:58:13;;;;;;;2.85;1.73;;;18.40;54.50;;;;;;4944311;28;86937;-83
2021/05/26 11:00:44;;;;;;;3.78;2.25;;;18.30;54.30;;;;;;4943627;28;87158;-85
2021/05/26 11:03:36;;;;;;;;;;;18.30;54.30;;;;;;4944052;28;87305;-84
2021/05/26 11:06:22;;;;;;;2.97;1.95;;;18.20;53.70;;;;;;4938845;28;86918;-86
2021/05/26 11:08:49;;;;;;;3.10;1.80;;;17.70;52.90;;;;;;4948655;28;86048;-85
2021/05/26 11:11:28;;;;;;;3.55;2.10;;;17.70;54.50;;;;;;4946985;28;87598;-87
2021/05/26 11:14:10;;;;;;;1.92;1.80;;;17.70;54.70;;;;;;4929762;28;88120;-87
2021/05/26 11:16:48;;;;;;;4.43;1.75;;;17.60;53.60;;;;;;4949899;28;87950;-86
2021/05/26 11:19:26;;;;;;;2.13;1.98;;;17.40;54.60;;;;;;4949238;28;87159;-87
2021/05/26 11:22:02;;;;;;;2.00;1.90;;;17.20;55.10;;;;;;4945707;28;88203;-86
2021/05/26 11:24:36;;;;;;;3.50;2.10;;;17.20;56.20;;;;;;4949661;28;87322;-85
2021/05/26 11:27:26;;;;;;;2.65;2.10;;;17.20;55.70;;;;;;4945345;28;86885;-84
2021/05/26 11:29:53;;;;;;;2.67;1.80;;;17.10;56.80;;;;;;4945577;28;86543;-86
2021/05/26 11:32:21;;;;;;;2.92;1.90;;;17.20;56.20;;;;;;4953371;28;86992;-85
2021/05/26 11:34:50;;;;;;;2.47;2.17;;;17.10;56.00;;;;;;4951880;28;86202;-85
2021/05/26 11:37:33;;;;;;;2.65;2.10;;;16.70;56.80;;;;;;4948185;28;86696;-84
2021/05/26 11:40:01;;;;;;;2.40;2.20;;;16.70;57.00;;;;;;4945198;28;87085;-86
2021/05/26 11:42:29;;;;;;;4.30;1.83;;;16.90;59.10;;;;;;4951095;28;88812;-85
2021/05/26 11:44:56;;;;;;;2.63;2.40;;;17.00;58.40;;;;;;4941446;28;87159;-86
2021/05/26 11:47:35;;;;;;;2.45;1.80;;;17.00;58.60;;;;;;4942992;28;86673;-86
2021/05/26 11:50:28;;;;;;;2.72;2.03;;;17.00;59.40;;;;;;4949708;28;86862;-85
2021/05/26 11:53:17;;;;;;;5.82;2.10;;;17.00;57.90;;;;;;4943453;28;87187;-86
2021/05/26 11:55:47;;;;;;;5.18;2.25;;;17.10;58.40;;;;;;4946612;28;86982;-83
2021/05/26 11:58:14;;;;;;;4.68;2.72;;;17.20;59.60;;;;;;4945695;28;87059;-84
2021/05/26 12:00:40;;;;;;;3.22;2.13;;;17.40;60.20;;;;;;4943185;28;86186;-84
2021/05/26 12:03:08;;;;;;;10.18;6.03;;;17.50;59.60;;;;;;4947931;28;88250;-85
2021/05/26 12:05:47;;;;;;;3.28;2.72;;;17.50;58.40;;;;;;4945254;28;87122;-82
2021/05/26 12:08:18;;;;;;;3.95;2.38;;;17.60;58.40;;;;;;4944441;28;88171;-82
2021/05/26 12:11:12;;;;;;;4.50;2.55;;;17.50;58.40;;;;;;4947911;28;86339;-86
2021/05/26 12:13:43;;;;;;;3.85;2.20;;;17.50;58.80;;;;;;4948646;28;87226;-84
2021/05/26 12:16:13;;;;;;;;;;;17.40;56.80;;;;;;4944580;28;87931;-84
2021/05/26 12:18:51;;;;;;;3.10;2.00;;;17.20;55.20;;;;;;4952231;28;87135;-86
2021/05/26 12:21:17;;;;;;;2.30;1.70;;;17.30;57.80;;;;;;4938800;28;86967;-87
2021/05/26 12:23:47;;;;;;;3.40;2.20;;;17.40;57.60;;;;;;4949356;28;88667;-86
2021/05/26 12:26:46;;;;;;;3.33;2.25;;;17.60;57.70;;;;;;4950707;28;86150;-85
2021/05/26 12:29:12;;;;;;;2.20;1.92;;;17.70;59.50;;;;;;4888361;28;87121;-84
2021/05/26 12:31:40;;;;;;;2.08;1.95;;;17.70;58.80;;;;;;4945614;28;86749;-84
2021/05/26 12:34:17;;;;;;;5.32;2.50;;;17.80;58.50;;;;;;4948233;28;87872;-82
2021/05/26 12:36:54;;;;;;;3.38;2.40;;;17.80;58.30;;;;;;4950962;28;87097;-86
2021/05/26 12:39:20;;;;;;;3.40;2.35;;;17.90;57.80;;;;;;4940361;28;86762;-85
2021/05/26 12:41:47;;;;;;;4.15;2.35;;;17.90;58.40;;;;;;4944969;28;86979;-83
2021/05/26 12:44:13;;;;;;;4.60;2.50;;;17.90;60.20;;;;;;4944933;28;88634;-85
2021/05/26 12:46:43;;;;;;;7.22;2.80;;;17.90;61.50;;;;;;4949665;28;87464;-82
2021/05/26 12:49:27;;;;;;;5.97;3.00;;;17.90;61.60;;;;;;4950120;28;86261;-83
2021/05/26 12:51:54;;;;;;;8.32;4.85;;;17.90;61.60;;;;;;4957325;28;85499;-84
2021/05/26 12:54:20;;;;;;;7.60;5.00;;;17.90;60.70;;;;;;4947733;28;87425;-85
2021/05/26 12:56:46;;;;;;;6.88;3.75;;;17.80;60.70;;;;;;4936463;28;87454;-85
2021/05/26 12:59:12;;;;;;;5.45;3.20;;;17.90;61.10;;;;;;4958808;28;87409;-83
2021/05/26 13:01:58;;;;;;;5.63;3.15;;;17.90;61.10;;;;;;4963298;28;86288;-87
2021/05/26 13:04:24;;;;;;;4.80;3.45;;;17.90;60.80;;;;;;4962785;28;86760;-86
2021/05/26 13:06:50;;;;;;;4.72;3.40;;;17.90;60.50;;;;;;4968561;28;86777;-87
2021/05/26 13:09:27;;;;;;;4.60;3.42;;;17.90;60.10;;;;;;4969068;28;86097;-86
2021/05/26 13:11:52;;;;;;;4.28;2.50;;;17.90;60.30;;;;;;4960487;28;86142;-86
2021/05/26 13:14:32;;;;;;;3.10;2.80;;;17.70;61.40;;;;;;4958325;28;86570;-88
2021/05/26 13:16:59;;;;;;;4.43;2.90;;;17.50;64.60;;;;;;4957130;28;87303;-85
2021/05/26 13:19:25;;;;;;;5.90;3.72;;;17.40;66.20;;;;;;4944329;28;87058;-85
2021/05/26 13:21:52;;;;;;;6.32;3.50;;;17.30;66.80;;;;;;4946566;28;86965;-86
2021/05/26 13:24:19;;;;;;;5.40;3.03;;;17.20;68.00;;;;;;4944284;28;88238;-86
2021/05/26 13:26:45;;;;;;;9.55;3.13;;;17.20;69.10;;;;;;4944419;28;87270;-87
2021/05/26 13:29:11;;;;;;;7.30;2.78;;;17.20;69.10;;;;;;4949035;28;86698;-87
2021/05/26 13:31:39;;;;;;;6.38;2.60;;;17.20;69.40;;;;;;4950294;28;87091;-87
2021/05/26 13:34:04;;;;;;;7.88;3.00;;;17.20;70.00;;;;;;4949071;28;89765;-87
2021/05/26 13:36:33;;;;;;;5.40;2.60;;;17.20;69.80;;;;;;4948125;28;86880;-86
2021/05/26 13:38:59;;;;;;;5.10;3.30;;;17.40;70.00;;;;;;4956862;28;87570;-86
2021/05/26 13:41:25;;;;;;;4.25;2.65;;;17.40;70.70;;;;;;4963517;28;85832;-86
2021/05/26 13:43:51;;;;;;;11.38;3.13;;;17.40;70.00;;;;;;4960496;28;87366;-87
2021/05/26 13:46:16;;;;;;;6.50;2.35;;;17.50;68.30;;;;;;4953719;28;86948;-87
2021/05/26 13:48:42;;;;;;;5.45;2.58;;;17.40;68.90;;;;;;4930855;28;88083;-86
2021/05/26 13:51:11;;;;;;;4.18;2.95;;;17.40;67.90;;;;;;4951255;28;87421;-83
2021/05/26 13:53:36;;;;;;;7.80;2.67;;;17.30;67.60;;;;;;4958712;28;86962;-84
2021/05/26 13:56:02;;;;;;;5.88;2.95;;;17.40;68.20;;;;;;4952496;28;86721;-87
2021/05/26 13:58:28;;;;;;;7.95;3.50;;;17.50;68.40;;;;;;4960762;28;86741;-84
2021/05/26 14:00:54;;;;;;;5.68;2.75;;;17.50;68.50;;;;;;4962339;28;87090;-85
2021/05/26 14:03:19;;;;;;;6.03;3.25;;;17.50;68.60;;;;;;4960677;28;87184;-85
2021/05/26 14:05:46;;;;;;;8.55;3.42;;;17.50;68.80;;;;;;4961814;28;86150;-84
2021/05/26 14:08:12;;;;;;;5.82;3.42;;;17.30;69.40;;;;;;4945285;28;86937;-87
2021/05/26 14:10:38;;;;;;;4.35;2.60;;;17.30;68.90;;;;;;4959863;28;86925;-83
2021/05/26 14:13:04;;;;;;;5.80;2.95;;;17.10;68.90;;;;;;4941131;28;91426;-87
2021/05/26 14:15:31;;;;;;;7.45;3.20;;;17.10;69.10;;;;;;4959993;28;86946;-87
2021/05/26 14:18:00;;;;;;;9.45;3.10;;;17.20;69.50;;;;;;4933708;28;86936;-87
2021/05/26 14:20:26;;;;;;;6.40;3.40;;;17.40;70.10;;;;;;4950431;28;86300;-87
2021/05/26 14:22:57;;;;;;;7.15;3.38;;;17.40;70.30;;;;;;4949952;28;87607;-87
2021/05/26 14:25:24;;;;;;;9.80;3.10;;;17.30;69.90;;;;;;4946499;28;88091;-86
2021/05/26 14:27:50;;;;;;;6.57;2.83;;;17.40;70.40;;;;;;4948550;28;86917;-85
2021/05/26 14:30:17;;;;;;;6.85;3.10;;;17.40;70.20;;;;;;4949181;28;86254;-88
2021/05/26 14:32:44;;;;;;;6.05;2.72;;;17.50;69.90;;;;;;4946281;28;88676;-86
2021/05/26 14:35:12;;;;;;;5.55;3.10;;;17.50;69.40;;;;;;4940024;28;86610;-86
2021/05/26 14:37:43;;;;;;;5.30;2.63;;;17.70;69.00;;;;;;4924648;28;87855;-87
2021/05/26 14:40:10;;;;;;;4.95;2.90;;;17.90;69.60;;;;;;4944214;28;88507;-85
2021/05/26 14:42:36;;;;;;;4.72;3.20;;;17.90;69.10;;;;;;4948892;28;88285;-86
2021/05/26 14:45:02;;;;;;;6.57;3.17;;;18.00;69.10;;;;;;4940006;28;87048;-85
2021/05/26 14:47:28;;;;;;;4.65;2.72;;;18.20;68.60;;;;;;4954729;28;86900;-85
2021/05/26 14:49:54;;;;;;;5.35;3.10;;;18.40;68.50;;;;;;4956948;28;86867;-87
2021/05/26 14:52:19;;;;;;;3.72;2.78;;;18.50;68.30;;;;;;4953617;28;87273;-86
2021/05/26 14:54:45;;;;;;;5.63;3.25;;;18.60;67.60;;;;;;4940089;28;86658;-87
2021/05/26 14:57:11;;;;;;;5.70;2.97;;;18.70;67.20;;;;;;4953587;28;87038;-86
2021/05/26 14:59:37;;;;;;;7.85;3.70;;;18.70;67.10;;;;;;4948743;28;87140;-85
2021/05/26 15:02:04;;;;;;;4.22;2.60;;;18.70;67.20;;;;;;4947394;28;88189;-84
2021/05/26 15:04:30;;;;;;;4.93;2.63;;;18.60;67.30;;;;;;4939327;28;87179;-86
2021/05/26 15:06:56;;;;;;;5.43;3.30;;;18.50;67.10;;;;;;4948751;28;87175;-87
2021/05/26 15:09:22;;;;;;;6.03;3.33;;;18.40;66.80;;;;;;4942124;28;87547;-86
2021/05/26 15:11:47;;;;;;;10.35;3.15;;;18.30;67.80;;;;;;4949138;28;87721;-85
2021/05/26 15:14:14;;;;;;;4.68;3.28;;;18.20;67.70;;;;;;4949611;28;86808;-85
2021/05/26 15:16:40;;;;;;;5.60;2.67;;;18.20;68.30;;;;;;4949958;28;87317;-86
2021/05/26 15:19:06;;;;;;;3.95;3.17;;;18.10;68.90;;;;;;4950400;28;86342;-85
2021/05/26 15:21:32;;;;;;;3.67;2.95;;;18.10;68.90;;;;;;4930889;28;88948;-86
2021/05/26 15:23:58;;;;;;;5.68;3.35;;;18.10;69.30;;;;;;4921172;28;88326;-85
2021/05/26 15:26:24;;;;;;;4.68;3.05;;;18.10;69.30;;;;;;4947810;28;87926;-85
2021/05/26 15:28:50;;;;;;;7.35;3.33;;;18.00;69.90;;;;;;4948870;28;86228;-85
2021/05/26 15:31:15;;;;;;;6.70;2.92;;;17.90;70.30;;;;;;4944696;28;87738;-84
2021/05/26 15:33:41;;;;;;;7.15;3.10;;;17.90;71.00;;;;;;4940954;28;86996;-86
2021/05/26 15:36:07;;;;;;;4.43;2.63;;;17.90;71.30;;;;;;4945472;28;86937;-86
2021/05/26 15:38:34;;;;;;;8.35;3.45;;;17.70;72.00;;;;;;4948123;28;87299;-87
2021/05/26 15:41:01;;;;;;;4.93;2.85;;;17.60;71.80;;;;;;4945788;28;87009;-86